Time;durP1;ratioP1;P1;durP2;ratioP2;P2;SDS_P1;SDS_P2;PMS_P1;PMS_P2;Temp;Humidity;BMP_temperature;BMP_pressure;BME280_temperature;BME280_humidity;BME280_pressure;Samples;Min_cycle;Max_cycle;Signal;HPM_P1;HPM_P2
2023/03/25 00:01:12;;;;;;;;;;;;;;;13.11;56.27;99323.31;4969734;28;7031;-76
2023/03/25 00:03:45;;;;;;;;;;;;;;;13.14;56.11;99323.38;4987418;28;6812;-76
2023/03/25 00:06:12;;;;;;;;;;;;;;;13.19;55.90;99316.63;4988261;28;6971;-76
2023/03/25 00:08:38;;;;;;;;;;;;;;;13.18;55.96;99320.00;4970471;28;7043;-76
2023/03/25 00:11:07;;;;;;;;;;;;;;;13.20;55.79;99315.78;4985019;28;8415;-76
2023/03/25 00:13:34;;;;;;;;;;;;;;;13.19;54.90;99312.34;4987005;28;6808;-76
2023/03/25 00:16:02;;;;;;;;;;;;;;;13.15;54.25;99319.97;5002425;28;7968;-76
2023/03/25 00:18:33;;;;;;;;;;;;;;;13.13;54.64;99316.50;4971198;28;6836;-76
2023/03/25 00:21:09;;;;;;;;;;;;;;;13.13;54.59;99321.63;4977476;28;6976;-76
2023/03/25 00:23:37;;;;;;;;;;;;;;;13.11;54.30;99334.47;4987976;28;6983;-76
2023/03/25 00:26:03;;;;;;;;;;;;;;;13.09;53.90;99331.00;4978448;28;6801;-76
2023/03/25 00:28:35;;;;;;;;;;;;;;;13.09;54.74;99341.28;4982969;28;6800;-75
2023/03/25 00:31:07;;;;;;;;;;;;;;;13.09;54.46;99335.28;4985137;28;7212;-75
2023/03/25 00:33:34;;;;;;;;;;;;;;;13.08;53.77;99330.94;4985796;28;6923;-76
2023/03/25 00:36:00;;;;;;;;;;;;;;;13.05;53.94;99329.22;4983787;28;6859;-75
2023/03/25 00:38:33;;;;;;;;;;;;;;;13.02;53.25;99324.88;4988539;28;6799;-76
2023/03/25 00:41:16;;;;;;;;;;;;;;;12.99;53.38;99341.94;4986646;28;6887;-76
2023/03/25 00:43:42;;;;;;;;;;;;;;;12.92;53.48;99336.66;4985072;28;6800;-76
2023/03/25 00:46:08;;;;;;;;;;;;;;;12.88;53.98;99327.16;4988098;28;6856;-76
2023/03/25 00:48:35;;;;;;;;;;;;;;;12.87;53.64;99340.84;4983516;28;6772;-76
2023/03/25 00:51:07;;;;;;;;;;;;;;;12.84;54.18;99337.34;4984166;28;6848;-76
2023/03/25 00:53:35;;;;;;;;;;;;;;;12.80;54.34;99318.38;4985972;28;7715;-76
2023/03/25 00:56:01;;;;;;;;;;;;;;;12.76;54.27;99332.03;4968841;28;7207;-76
2023/03/25 00:58:27;;;;;;;;;;;;;;;12.76;54.03;99326.88;4970474;28;6972;-76
2023/03/25 01:00:55;;;;;;;;;;;;;;;12.76;53.87;99340.59;4985868;28;6788;-76
2023/03/25 01:03:27;;;;;;;;;;;;;;;12.77;53.89;99328.63;4970306;28;7329;-76
2023/03/25 01:05:54;;;;;;;;;;;;;;;12.75;54.47;99323.44;4983070;28;6868;-76
2023/03/25 01:08:28;;;;;;;;;;;;;;;12.71;54.08;99318.19;4985208;28;6808;-76
2023/03/25 01:10:55;;;;;;;;;;;;;;;12.69;54.16;99325.00;4984504;28;6807;-76
2023/03/25 01:13:22;;;;;;;;;;;;;;;12.68;54.47;99325.84;4976472;28;7453;-76
2023/03/25 01:15:48;;;;;;;;;;;;;;;12.66;54.52;99324.94;4985988;28;7326;-76
2023/03/25 01:18:14;;;;;;;;;;;;;;;12.66;54.34;99317.25;4988394;28;6776;-76
2023/03/25 01:20:40;;;;;;;;;;;;;;;12.64;53.80;99318.03;4984603;28;6792;-76
2023/03/25 01:23:08;;;;;;;;;;;;;;;12.62;54.18;99329.16;4970332;28;6999;-76
2023/03/25 01:25:35;;;;;;;;;;;;;;;12.59;54.07;99329.06;4969117;28;7101;-76
2023/03/25 01:28:02;;;;;;;;;;;;;;;12.61;54.65;99333.41;4984496;28;6975;-76
2023/03/25 01:30:28;;;;;;;;;;;;;;;12.63;53.84;99325.75;4969384;28;7281;-76
2023/03/25 01:32:53;;;;;;;;;;;;;;;12.62;53.85;99330.00;4991148;28;7230;-76
2023/03/25 01:35:19;;;;;;;;;;;;;;;12.61;54.06;99318.00;4983525;28;6967;-76
2023/03/25 01:37:45;;;;;;;;;;;;;;;12.60;53.84;99307.66;4986369;28;6788;-76
2023/03/25 01:40:19;;;;;;;;;;;;;;;12.56;53.76;99311.88;4983461;28;7211;-76
2023/03/25 01:42:45;;;;;;;;;;;;;;;12.54;54.35;99313.53;4984582;28;7006;-76
2023/03/25 01:45:28;;;;;;;;;;;;;;;12.52;54.11;99311.78;4985564;28;6922;-75
2023/03/25 01:48:05;;;;;;;;;;;;;;;12.52;54.04;99311.78;4987832;28;7142;-75
2023/03/25 01:50:34;;;;;;;;;;;;;;;12.52;54.06;99306.66;4968198;28;8049;-75
2023/03/25 01:53:04;;;;;;;;;;;;;;;12.54;54.14;99307.53;4983410;28;6815;-75
2023/03/25 01:55:34;;;;;;;;;;;;;;;12.54;54.78;99321.25;4987586;28;7097;-75
2023/03/25 01:58:09;;;;;;;;;;;;;;;12.52;54.25;99312.63;4983710;28;7202;-75
2023/03/25 02:00:38;;;;;;;;;;;;;;;12.50;54.47;99309.16;4967022;28;7275;-76
2023/03/25 02:03:04;;;;;;;;;;;;;;;12.52;54.27;99304.94;4983543;28;7184;-76
2023/03/25 02:05:40;;;;;;;;;;;;;;;12.53;54.74;99303.25;4983456;28;6780;-76
2023/03/25 02:08:08;;;;;;;;;;;;;;;12.52;54.57;99311.78;4984950;28;7117;-76
2023/03/25 02:10:36;;;;;;;;;;;;;;;12.51;55.14;99305.75;4985088;28;6804;-76
2023/03/25 02:13:05;;;;;;;;;;;;;;;12.48;54.36;99303.13;4968576;28;7041;-76
2023/03/25 02:15:58;;;;;;;;;;;;;;;12.44;54.79;99294.47;4983883;28;6800;-76
2023/03/25 02:19:01;;;;;;;;;;;;;;;12.41;54.69;99303.81;4984697;28;7032;-75
2023/03/25 02:22:01;;;;;;;;;;;;;;;12.38;55.62;99298.63;4968592;28;7119;-76
2023/03/25 02:25:17;;;;;;;;;;;;;;;12.33;55.59;99296.78;4980403;28;7219;-75
2023/03/25 02:28:28;;;;;;;;;;;;;;;12.32;55.62;99305.34;4990585;28;7780;-76
2023/03/25 02:31:35;;;;;;;;;;;;;;;12.34;55.16;99302.81;4983431;28;6820;-76
2023/03/25 02:34:36;;;;;;;;;;;;;;;12.41;55.38;99306.41;4984143;28;6800;-75
2023/03/25 02:37:45;;;;;;;;;;;;;;;12.48;55.69;99305.72;4974718;28;6998;-75
2023/03/25 02:40:34;;;;;;;;;;;;;;;12.57;55.55;99300.78;4984267;28;7175;-76
2023/03/25 02:43:11;;;;;;;;;;;;;;;12.58;55.53;99305.06;4983653;28;6943;-76
2023/03/25 02:45:49;;;;;;;;;;;;;;;12.61;55.12;99310.28;4982730;28;7221;-75
2023/03/25 02:48:32;;;;;;;;;;;;;;;12.62;54.46;99318.88;4967780;28;7062;-76
2023/03/25 02:51:09;;;;;;;;;;;;;;;12.67;54.58;99309.53;4983054;28;6816;-76
2023/03/25 02:53:38;;;;;;;;;;;;;;;12.72;54.94;99307.06;4985021;28;7605;-75
2023/03/25 02:56:11;;;;;;;;;;;;;;;12.69;55.31;99309.59;4987237;28;6792;-76
2023/03/25 02:58:40;;;;;;;;;;;;;;;12.61;54.79;99302.56;4982826;28;7292;-76
2023/03/25 03:01:08;;;;;;;;;;;;;;;12.55;54.80;99307.56;4984801;28;6816;-76
2023/03/25 03:03:35;;;;;;;;;;;;;;;12.47;55.33;99303.97;4982730;28;6997;-76
2023/03/25 03:06:04;;;;;;;;;;;;;;;12.40;55.49;99302.94;4985872;28;6980;-76
2023/03/25 03:08:49;;;;;;;;;;;;;;;12.35;55.68;99305.41;4971058;28;6864;-76
2023/03/25 03:11:50;;;;;;;;;;;;;;;12.32;56.08;99297.63;4985896;28;6962;-75
2023/03/25 03:14:40;;;;;;;;;;;;;;;12.30;56.27;99299.31;4981416;28;7210;-75
2023/03/25 03:17:37;;;;;;;;;;;;;;;12.35;56.16;99292.56;4980124;28;7185;-75
2023/03/25 03:20:49;;;;;;;;;;;;;;;12.44;55.29;99299.63;4973679;28;6991;-75
2023/03/25 03:23:32;;;;;;;;;;;;;;;12.52;55.16;99298.94;4966590;28;7010;-76
2023/03/25 03:27:01;;;;;;;;;;;;;;;12.59;54.68;99304.25;4981597;28;7035;-76
2023/03/25 03:29:40;;;;;;;;;;;;;;;12.66;54.91;99300.09;4945691;28;7012;-76
2023/03/25 03:32:27;;;;;;;;;;;;;;;12.73;54.66;99306.22;4981382;28;7118;-76
2023/03/25 03:35:00;;;;;;;;;;;;;;;12.78;54.88;99304.66;4987025;28;6974;-75
2023/03/25 03:37:40;;;;;;;;;;;;;;;12.82;54.00;99309.00;4984146;28;6831;-75
2023/03/25 03:40:17;;;;;;;;;;;;;;;12.86;53.57;99318.53;4981571;28;7352;-75
2023/03/25 03:43:06;;;;;;;;;;;;;;;12.91;53.74;99316.91;4984251;28;6816;-75
2023/03/25 03:45:49;;;;;;;;;;;;;;;12.91;54.42;99311.75;4985071;28;6860;-75
2023/03/25 03:48:24;;;;;;;;;;;;;;;12.89;53.68;99307.41;4971222;28;6996;-75
2023/03/25 03:50:59;;;;;;;;;;;;;;;12.91;54.08;99316.06;4982176;28;6804;-76
2023/03/25 03:53:36;;;;;;;;;;;;;;;12.95;53.58;99307.56;4983421;28;6816;-75
2023/03/25 03:56:09;;;;;;;;;;;;;;;12.97;53.59;99305.88;4988260;28;6819;-75
2023/03/25 03:58:41;;;;;;;;;;;;;;;12.97;53.38;99300.75;4985410;28;6816;-75
2023/03/25 04:01:26;;;;;;;;;;;;;;;12.98;52.91;99306.75;4991743;28;6966;-75
2023/03/25 04:04:04;;;;;;;;;;;;;;;12.99;52.94;99306.81;4964294;28;7077;-75
2023/03/25 04:06:56;;;;;;;;;;;;;;;13.03;52.40;99318.00;4968541;28;7734;-75
2023/03/25 04:10:05;;;;;;;;;;;;;;;13.06;53.38;99315.50;4984025;28;6947;-75
2023/03/25 04:12:39;;;;;;;;;;;;;;;13.08;52.30;99311.25;4986780;28;6804;-75
2023/03/25 04:15:07;;;;;;;;;;;;;;;13.11;52.64;99316.47;4963466;28;7270;-75
2023/03/25 04:17:32;;;;;;;;;;;;;;;13.17;52.19;99308.00;4979860;28;7003;-76
2023/03/25 04:20:00;;;;;;;;;;;;;;;13.18;51.80;99310.59;4984527;28;6780;-76
2023/03/25 04:22:26;;;;;;;;;;;;;;;13.24;51.85;99309.00;4985014;28;6851;-76
2023/03/25 04:24:53;;;;;;;;;;;;;;;13.23;51.78;99308.13;4960773;28;6968;-75
2023/03/25 04:27:21;;;;;;;;;;;;;;;13.26;51.88;99312.47;4982384;28;6808;-75
2023/03/25 04:29:50;;;;;;;;;;;;;;;13.26;51.35;99302.19;4984216;28;6838;-75
2023/03/25 04:32:16;;;;;;;;;;;;;;;13.27;52.00;99314.19;4985472;28;6985;-75
2023/03/25 04:34:42;;;;;;;;;;;;;;;13.31;51.60;99310.84;4981442;28;6780;-75
2023/03/25 04:37:08;;;;;;;;;;;;;;;13.31;51.19;99311.72;4965501;28;6828;-75
2023/03/25 04:39:33;;;;;;;;;;;;;;;13.30;52.00;99309.09;4984346;28;6768;-75
2023/03/25 04:42:02;;;;;;;;;;;;;;;13.27;52.14;99309.06;4964626;28;6953;-75
2023/03/25 04:44:32;;;;;;;;;;;;;;;13.25;51.04;99311.59;4977625;28;7347;-75
2023/03/25 04:47:00;;;;;;;;;;;;;;;13.26;51.43;99309.91;4980116;28;7265;-76
2023/03/25 04:49:26;;;;;;;;;;;;;;;13.26;51.09;99309.91;4981670;28;7186;-75
2023/03/25 04:51:53;;;;;;;;;;;;;;;13.27;51.98;99289.31;4963776;28;6965;-76
2023/03/25 04:54:20;;;;;;;;;;;;;;;13.28;50.95;99318.50;4970181;28;6804;-75
2023/03/25 04:56:48;;;;;;;;;;;;;;;13.30;51.70;99312.56;4955231;28;6996;-76
2023/03/25 04:59:15;;;;;;;;;;;;;;;13.32;51.54;99316.03;4978389;28;6800;-76
2023/03/25 05:01:44;;;;;;;;;;;;;;;13.30;51.65;99315.13;4973747;28;7246;-76
2023/03/25 05:04:12;;;;;;;;;;;;;;;13.22;50.68;99318.38;4951655;28;7295;-75
2023/03/25 05:06:41;;;;;;;;;;;;;;;13.06;51.38;99313.78;4975544;28;10566;-75
2023/03/25 05:09:14;;;;;;;;;;;;;;;12.95;52.38;99317.00;4992760;28;6978;-76
2023/03/25 05:11:42;;;;;;;;;;;;;;;12.86;51.70;99318.53;4980588;28;6999;-76
2023/03/25 05:14:15;;;;;;;;;;;;;;;12.81;52.32;99321.84;4958317;28;7296;-75
2023/03/25 05:16:42;;;;;;;;;;;;;;;12.82;53.04;99321.84;4978695;28;6804;-75
2023/03/25 05:19:09;;;;;;;;;;;;;;;12.85;52.30;99316.81;4980986;28;6992;-75
2023/03/25 05:21:38;;;;;;;;;;;;;;;12.87;52.43;99314.25;4992826;28;6816;-75
2023/03/25 05:24:07;;;;;;;;;;;;;;;12.83;52.88;99315.88;4962427;28;7420;-75
2023/03/25 05:26:34;;;;;;;;;;;;;;;12.81;52.76;99317.56;4984234;28;7054;-75
2023/03/25 05:29:05;;;;;;;;;;;;;;;12.85;52.28;99324.53;4978272;28;6852;-75
2023/03/25 05:31:31;;;;;;;;;;;;;;;12.90;53.01;99325.47;4972160;28;6816;-76
2023/03/25 05:33:57;;;;;;;;;;;;;;;12.94;53.11;99323.81;4977196;28;7823;-76
2023/03/25 05:36:26;;;;;;;;;;;;;;;12.91;52.24;99334.91;4953171;28;7125;-76
2023/03/25 05:38:53;;;;;;;;;;;;;;;12.82;52.53;99326.16;4964622;28;7007;-76
2023/03/25 05:41:21;;;;;;;;;;;;;;;12.68;52.70;99334.41;4965477;28;6950;-76
2023/03/25 05:43:49;;;;;;;;;;;;;;;12.55;53.10;99329.84;4980294;28;7647;-76
2023/03/25 05:46:18;;;;;;;;;;;;;;;12.42;53.57;99334.72;4979167;28;6800;-76
2023/03/25 05:48:45;;;;;;;;;;;;;;;12.33;54.77;99327.63;4985365;28;6954;-76
2023/03/25 05:51:15;;;;;;;;;;;;;;;12.27;54.55;99327.50;4984440;28;7267;-75
2023/03/25 05:53:43;;;;;;;;;;;;;;;12.19;54.99;99335.00;4977351;28;6800;-75
2023/03/25 05:56:11;;;;;;;;;;;;;;;12.13;55.81;99327.16;4981821;28;6808;-75
2023/03/25 05:58:37;;;;;;;;;;;;;;;12.09;56.18;99325.34;4970718;28;6966;-75
2023/03/25 06:01:04;;;;;;;;;;;;;;;12.04;56.66;99335.50;4981452;28;6804;-76
2023/03/25 06:03:33;;;;;;;;;;;;;;;12.08;56.02;99345.03;4983671;28;6914;-76
2023/03/25 06:06:00;;;;;;;;;;;;;;;12.11;56.55;99331.38;4975970;28;7118;-76
2023/03/25 06:08:28;;;;;;;;;;;;;;;12.11;55.99;99338.22;4979447;28;7203;-76
2023/03/25 06:10:57;;;;;;;;;;;;;;;12.12;55.89;99347.66;4972921;28;7019;-75
2023/03/25 06:13:24;;;;;;;;;;;;;;;12.13;56.74;99352.84;4981265;28;6879;-75
2023/03/25 06:15:55;;;;;;;;;;;;;;;12.11;57.06;99348.50;4976208;28;6999;-76
2023/03/25 06:18:23;;;;;;;;;;;;;;;12.07;57.23;99345.88;4982975;28;6808;-76
2023/03/25 06:20:52;;;;;;;;;;;;;;;12.04;56.73;99356.03;4980264;28;6800;-76
2023/03/25 06:23:22;;;;;;;;;;;;;;;12.05;56.94;99356.94;4968653;28;7699;-76
2023/03/25 06:25:50;;;;;;;;;;;;;;;12.04;57.06;99352.63;4976477;28;8396;-76
2023/03/25 06:28:17;;;;;;;;;;;;;;;12.04;57.30;99353.47;4980140;28;7441;-76
2023/03/25 06:30:49;;;;;;;;;;;;;;;12.08;57.33;99347.59;4994946;28;6884;-76
2023/03/25 06:33:18;;;;;;;;;;;;;;;12.14;56.76;99361.41;4958087;28;7168;-75
2023/03/25 06:35:52;;;;;;;;;;;;;;;12.19;56.71;99364.97;4968983;28;7199;-75
2023/03/25 06:38:20;;;;;;;;;;;;;;;12.25;56.37;99367.69;4957221;28;7941;-75
2023/03/25 06:40:46;;;;;;;;;;;;;;;12.30;56.60;99372.94;4965380;28;6876;-75
2023/03/25 06:43:12;;;;;;;;;;;;;;;12.37;56.59;99361.97;4998477;28;6993;-75
2023/03/25 06:45:38;;;;;;;;;;;;;;;12.43;56.43;99362.13;4980529;28;6772;-75
2023/03/25 06:48:04;;;;;;;;;;;;;;;12.49;56.86;99369.13;4960448;28;7300;-75
2023/03/25 06:50:31;;;;;;;;;;;;;;;12.58;56.22;99365.88;4955233;28;7313;-76
2023/03/25 06:52:57;;;;;;;;;;;;;;;12.66;56.55;99373.78;4980607;28;6796;-75
2023/03/25 06:55:23;;;;;;;;;;;;;;;12.74;55.76;99370.56;4985054;28;7235;-75
2023/03/25 06:57:48;;;;;;;;;;;;;;;12.80;55.79;99371.53;4968029;28;6959;-75
2023/03/25 07:00:19;;;;;;;;;;;;;;;12.82;55.64;99377.56;4977110;28;6804;-75
2023/03/25 07:02:45;;;;;;;;;;;;;;;12.88;55.32;99372.56;4960416;28;6996;-75
2023/03/25 07:05:11;;;;;;;;;;;;;;;12.90;55.58;99366.63;4979734;28;7208;-75
2023/03/25 07:07:36;;;;;;;;;;;;;;;12.95;55.41;99378.72;4975908;28;7204;-75
2023/03/25 07:10:03;;;;;;;;;;;;;;;13.00;55.95;99374.53;4983571;28;7947;-75
2023/03/25 07:12:29;;;;;;;;;;;;;;;13.05;55.97;99381.50;4979224;28;6919;-75
2023/03/25 07:14:59;;;;;;;;;;;;;;;13.06;55.74;99383.25;4980794;28;6772;-75
2023/03/25 07:17:24;;;;;;;;;;;;;;;13.07;55.48;99384.13;4966722;28;6998;-76
2023/03/25 07:19:50;;;;;;;;;;;;;;;13.04;54.59;99381.50;4974778;28;7479;-76
2023/03/25 07:22:16;;;;;;;;;;;;;;;12.99;55.25;99395.94;4981186;28;6958;-75
2023/03/25 07:24:42;;;;;;;;;;;;;;;12.95;54.99;99387.28;4982761;28;6768;-76
2023/03/25 07:27:11;;;;;;;;;;;;;;;12.91;54.58;99388.06;4982449;28;6784;-76
2023/03/25 07:29:38;;;;;;;;;;;;;;;12.88;54.77;99391.44;4983990;28;6808;-75
2023/03/25 07:32:04;;;;;;;;;;;;;;;12.85;54.58;99378.53;4983126;28;7235;-76
2023/03/25 07:34:30;;;;;;;;;;;;;;;12.83;55.29;99375.03;4997837;28;6994;-75
2023/03/25 07:36:55;;;;;;;;;;;;;;;12.81;55.48;99381.84;4979268;28;7258;-75
2023/03/25 07:39:23;;;;;;;;;;;;;;;12.84;55.35;99392.19;4981138;28;6812;-75
2023/03/25 07:41:50;;;;;;;;;;;;;;;12.90;55.47;99382.03;4973823;28;8209;-75
2023/03/25 07:44:19;;;;;;;;;;;;;;;13.00;55.79;99389.97;4980408;28;6795;-75
2023/03/25 07:46:45;;;;;;;;;;;;;;;13.17;55.29;99395.47;4978125;28;7391;-75
2023/03/25 07:49:11;;;;;;;;;;;;;;;13.40;55.48;99402.81;4975369;28;6812;-75
2023/03/25 07:51:37;;;;;;;;;;;;;;;13.63;55.33;99384.41;4984352;28;6851;-75
2023/03/25 07:54:03;;;;;;;;;;;;;;;13.83;54.16;99389.94;4979952;28;6920;-75
2023/03/25 07:56:29;;;;;;;;;;;;;;;13.98;54.09;99392.78;4979988;28;8359;-75
2023/03/25 07:58:54;;;;;;;;;;;;;;;14.08;54.14;99398.97;4975456;28;6951;-75
2023/03/25 08:01:20;;;;;;;;;;;;;;;14.13;53.51;99399.91;4952199;28;7343;-75
2023/03/25 08:03:46;;;;;;;;;;;;;;;14.20;53.07;99402.59;4975869;28;6991;-75
2023/03/25 08:06:12;;;;;;;;;;;;;;;14.24;52.21;99404.38;4974633;28;7003;-75
2023/03/25 08:08:37;;;;;;;;;;;;;;;14.29;52.63;99408.81;4958873;28;6975;-76
2023/03/25 08:11:04;;;;;;;;;;;;;;;14.35;51.83;99414.88;4971641;28;6811;-76
2023/03/25 08:13:30;;;;;;;;;;;;;;;14.43;52.37;99413.31;4970822;28;7317;-76
2023/03/25 08:15:56;;;;;;;;;;;;;;;14.51;51.59;99422.03;4984439;28;7198;-76
2023/03/25 08:18:23;;;;;;;;;;;;;;;14.55;51.74;99417.81;4963910;28;6947;-76
2023/03/25 08:20:52;;;;;;;;;;;;;;;14.60;52.14;99417.88;4979469;28;7296;-76
2023/03/25 08:23:19;;;;;;;;;;;;;;;14.67;51.18;99420.56;4957107;28;8477;-76
2023/03/25 08:25:48;;;;;;;;;;;;;;;14.77;51.39;99426.75;4980037;28;6991;-76
2023/03/25 08:28:21;;;;;;;;;;;;;;;14.84;50.49;99415.69;4979028;28;6788;-75
2023/03/25 08:30:53;;;;;;;;;;;;;;;14.86;50.06;99428.63;4980046;28;6980;-76
2023/03/25 08:33:20;;;;;;;;;;;;;;;14.82;49.55;99414.81;4958197;28;7282;-76
2023/03/25 08:35:49;;;;;;;;;;;;;;;14.77;49.67;99415.59;4980304;28;8008;-76
2023/03/25 08:38:16;;;;;;;;;;;;;;;14.73;49.65;99409.50;4981234;28;7000;-76
2023/03/25 08:40:42;;;;;;;;;;;;;;;14.73;48.83;99414.66;4983004;28;6780;-76
2023/03/25 08:43:09;;;;;;;;;;;;;;;14.76;49.03;99424.16;4981204;28;7649;-76
2023/03/25 08:45:35;;;;;;;;;;;;;;;14.80;49.36;99423.34;4979825;28;6982;-75
2023/03/25 08:48:02;;;;;;;;;;;;;;;14.88;49.20;99423.50;4980788;28;6780;-76
2023/03/25 08:50:29;;;;;;;;;;;;;;;14.96;48.95;99417.59;4983068;28;8670;-75
2023/03/25 08:52:57;;;;;;;;;;;;;;;15.03;49.23;99417.69;4978527;28;6796;-75
2023/03/25 08:55:24;;;;;;;;;;;;;;;15.06;48.86;99425.47;4975553;28;6808;-75
2023/03/25 08:57:50;;;;;;;;;;;;;;;15.08;48.56;99421.19;4981629;28;6784;-76
2023/03/25 09:00:16;;;;;;;;;;;;;;;15.14;48.23;99418.69;4977731;28;6975;-76
2023/03/25 09:02:42;;;;;;;;;;;;;;;15.15;47.71;99415.25;4962387;28;8053;-76
2023/03/25 09:05:10;;;;;;;;;;;;;;;15.12;48.41;99408.34;4979970;28;6975;-76
2023/03/25 09:07:37;;;;;;;;;;;;;;;15.20;48.16;99410.16;4981787;28;7166;-77
2023/03/25 09:10:06;;;;;;;;;;;;;;;15.32;48.85;99410.31;4980046;28;7448;-77
2023/03/25 09:12:32;;;;;;;;;;;;;;;15.49;48.08;99407.06;4978303;28;6800;-76
2023/03/25 09:14:58;;;;;;;;;;;;;;;15.64;47.81;99411.56;4981940;28;6957;-76
2023/03/25 09:17:24;;;;;;;;;;;;;;;15.76;47.68;99428.91;4982018;28;6776;-76
2023/03/25 09:19:50;;;;;;;;;;;;;;;15.83;46.86;99425.53;4978988;28;6772;-76
2023/03/25 09:22:16;;;;;;;;;;;;;;;15.88;47.43;99425.56;4980952;28;7129;-76
2023/03/25 09:24:41;;;;;;;;;;;;;;;15.88;46.95;99426.47;4983644;28;6899;-75
2023/03/25 09:27:07;;;;;;;;;;;;;;;15.87;46.96;99424.72;4980918;28;6958;-76
2023/03/25 09:29:33;;;;;;;;;;;;;;;15.83;46.38;99425.53;4964717;28;8082;-76
2023/03/25 09:31:59;;;;;;;;;;;;;;;15.78;46.11;99422.91;4982524;28;6772;-76
2023/03/25 09:34:26;;;;;;;;;;;;;;;15.74;46.36;99434.06;4981084;28;7900;-76
2023/03/25 09:36:53;;;;;;;;;;;;;;;15.71;46.51;99425.41;4977944;28;6879;-76
2023/03/25 09:39:19;;;;;;;;;;;;;;;15.65;46.33;99427.09;4962802;28;6840;-75
2023/03/25 09:42:23;;;;;;;;;;;;;;;15.56;45.97;99434.72;4977465;28;6796;-76
2023/03/25 09:45:24;;;;;;;;;;;;;;;15.43;46.42;99433.69;4981630;28;7314;-76
2023/03/25 09:48:30;;;;;;;;;;;;;;;15.38;46.66;99435.34;4972849;28;7158;-75
2023/03/25 09:51:09;;;;;;;;;;;;;;;15.47;47.23;99447.50;4980519;28;7043;-76
2023/03/25 09:53:50;;;;;;;;;;;;;;;15.63;47.18;99431.34;4955116;28;7317;-76
2023/03/25 09:56:23;;;;;;;;;;;;;;;15.89;46.85;99433.34;4958799;28;7068;-76
2023/03/25 09:59:17;;;;;;;;;;;;;;;16.16;46.98;99431.06;4981358;28;6796;-76
2023/03/25 10:02:18;;;;;;;;;;;;;;;16.38;46.21;99430.44;4971717;28;7031;-76
2023/03/25 10:05:22;;;;;;;;;;;;;;;16.56;45.85;99441.75;4973427;28;7114;-76
2023/03/25 10:08:03;;;;;;;;;;;;;;;16.63;44.95;99437.53;4975991;28;7770;-76
2023/03/25 10:10:41;;;;;;;;;;;;;;;16.76;45.33;99435.91;4972367;28;7244;-76
2023/03/25 10:13:33;;;;;;;;;;;;;;;16.92;44.25;99445.47;4979465;28;7206;-74
2023/03/25 10:16:29;;;;;;;;;;;;;;;17.14;44.58;99443.06;4978555;28;7429;-75
2023/03/25 10:19:20;;;;;;;;;;;;;;;17.27;43.76;99435.38;4997227;28;7141;-76
2023/03/25 10:22:46;;;;;;;;;;;;;;;17.25;43.71;99450.88;4968724;28;6979;-75
2023/03/25 10:25:26;;;;;;;;;;;;;;;17.10;42.71;99458.59;4934494;28;9522;-75
2023/03/25 10:27:53;;;;;;;;;;;;;;;17.10;43.24;99463.75;4984573;28;7088;-75
2023/03/25 10:30:40;;;;;;;;;;;;;;;17.48;43.17;99465.69;4979392;28;6801;-76
2023/03/25 10:33:33;;;;;;;;;;;;;;;18.20;42.76;99459.00;4964826;28;7010;-75
2023/03/25 10:36:03;;;;;;;;;;;;;;;19.07;41.62;99466.81;4981951;28;9015;-76
2023/03/25 10:38:32;;;;;;;;;;;;;;;19.66;40.11;99458.00;4972257;28;6808;-76
2023/03/25 10:41:27;;;;;;;;;;;;;;;20.01;39.70;99448.31;4975910;28;7572;-76
2023/03/25 10:43:53;;;;;;;;;;;;;;;20.16;39.25;99461.22;4978866;28;7223;-75
2023/03/25 10:46:50;;;;;;;;;;;;;;;20.22;38.70;99468.13;4975161;28;6963;-76
2023/03/25 10:49:21;;;;;;;;;;;;;;;20.24;38.56;99469.84;4995437;28;7692;-75
2023/03/25 10:51:55;;;;;;;;;;;;;;;19.83;39.44;99479.59;4985596;28;6788;-75
2023/03/25 10:54:30;;;;;;;;;;;;;;;19.26;39.50;99482.38;4967256;28;7110;-76
2023/03/25 10:57:05;;;;;;;;;;;;;;;18.51;41.02;99482.41;4984143;28;7064;-75
2023/03/25 11:00:03;;;;;;;;;;;;;;;17.72;42.09;99490.84;4982486;28;6824;-75
2023/03/25 11:02:32;;;;;;;;;;;;;;;17.06;43.83;99488.75;4971263;28;7342;-75
2023/03/25 11:05:06;;;;;;;;;;;;;;;16.57;44.93;99497.84;4984268;28;6879;-75
2023/03/25 11:07:38;;;;;;;;;;;;;;;16.18;45.96;99497.44;4973372;28;7027;-75
2023/03/25 11:10:13;;;;;;;;;;;;;;;15.86;46.64;99507.38;4985704;28;6820;-76
2023/03/25 11:12:45;;;;;;;;;;;;;;;15.58;47.64;99509.63;4982104;28;6776;-76
2023/03/25 11:15:21;;;;;;;;;;;;;;;15.34;48.05;99501.53;4980709;28;7345;-76
2023/03/25 11:18:21;;;;;;;;;;;;;;;15.17;49.51;99497.88;4984551;28;6919;-75
2023/03/25 11:20:59;;;;;;;;;;;;;;;15.23;49.82;99497.94;4978106;28;6944;-76
2023/03/25 11:23:43;;;;;;;;;;;;;;;15.31;50.50;99493.78;4978829;28;6868;-75
2023/03/25 11:26:17;;;;;;;;;;;;;;;15.38;49.22;99498.19;4980977;28;7245;-75
2023/03/25 11:29:15;;;;;;;;;;;;;;;15.30;48.64;99499.78;4983174;28;6799;-76
2023/03/25 11:31:42;;;;;;;;;;;;;;;15.11;49.32;99477.97;4979398;28;7019;-76
2023/03/25 11:34:10;;;;;;;;;;;;;;;14.98;49.25;99482.13;4977225;28;6982;-76
2023/03/25 11:36:45;;;;;;;;;;;;;;;14.84;49.51;99475.00;4980981;28;6795;-76
2023/03/25 11:39:29;;;;;;;;;;;;;;;14.76;49.73;99462.84;4996814;28;7022;-75
2023/03/25 11:41:56;;;;;;;;;;;;;;;14.78;50.57;99481.78;4987115;28;6824;-75
2023/03/25 11:44:26;;;;;;;;;;;;;;;15.06;51.35;99465.00;4982901;28;6788;-75
2023/03/25 11:47:01;;;;;;;;;;;;;;;15.59;49.86;99467.44;4983515;28;7876;-75
2023/03/25 11:49:34;;;;;;;;;;;;;;;15.99;48.23;99460.22;4981590;28;7355;-75
2023/03/25 11:52:11;;;;;;;;;;;;;;;16.33;47.42;99468.28;4980302;28;6859;-75
2023/03/25 11:54:37;;;;;;;;;;;;;;;16.63;46.64;99453.03;4968908;28;6985;-75
2023/03/25 11:57:13;;;;;;;;;;;;;;;16.84;46.45;99474.75;4982239;28;7271;-75
2023/03/25 11:59:44;;;;;;;;;;;;;;;16.99;45.68;99461.91;4979365;28;7364;-75
2023/03/25 12:02:30;;;;;;;;;;;;;;;17.19;45.22;99461.19;4957863;28;7017;-76
2023/03/25 12:05:11;;;;;;;;;;;;;;;18.01;45.87;99450.31;4973786;28;6804;-76
2023/03/25 12:07:46;;;;;;;;;;;;;;;18.96;44.40;99446.06;4984061;28;7031;-76
2023/03/25 12:10:30;;;;;;;;;;;;;;;19.63;42.15;99427.69;4986664;28;6812;-76
2023/03/25 12:13:10;;;;;;;;;;;;;;;20.02;40.20;99445.72;4986233;28;6803;-75
2023/03/25 12:16:05;;;;;;;;;;;;;;;20.05;39.69;99432.69;4977344;28;6792;-75
2023/03/25 12:19:09;;;;;;;;;;;;;;;19.95;39.27;99420.63;4974954;28;6824;-75
2023/03/25 12:22:04;;;;;;;;;;;;;;;19.46;38.21;99448.53;4975603;28;7054;-74
2023/03/25 12:25:31;;;;;;;;;;;;;;;19.00;38.28;99437.41;4965272;28;6928;-74
2023/03/25 12:28:33;;;;;;;;;;;;;;;18.44;40.07;99442.59;4953521;28;7194;-74
2023/03/25 12:31:39;;;;;;;;;;;;;;;18.19;39.96;99433.94;4994278;28;7006;-74
2023/03/25 12:34:24;;;;;;;;;;;;;;;18.02;40.67;99428.72;4981724;28;6808;-74
2023/03/25 12:37:22;;;;;;;;;;;;;;;17.89;40.05;99430.41;4964905;28;6986;-75
2023/03/25 12:39:58;;;;;;;;;;;;;;;17.77;39.90;99421.75;4978300;28;6816;-75
2023/03/25 12:42:43;;;;;;;;;;;;;;;17.76;39.71;99403.59;4979801;28;6820;-74
2023/03/25 12:45:42;;;;;;;;;;;;;;;17.69;40.10;99394.09;4979431;28;7133;-74
2023/03/25 12:48:48;;;;;;;;;;;;;;;17.19;40.19;99427.53;4982162;28;7023;-74
2023/03/25 12:51:41;;;;;;;;;;;;;;;16.57;41.32;99447.81;4979068;28;6999;-77
2023/03/25 12:54:18;;;;;;;;;;;;;;;16.06;42.72;99454.22;4972881;28;7568;-77
2023/03/25 12:56:53;;;;;;;;;;;;;;;15.60;43.83;99457.13;4992689;28;7174;-76
2023/03/25 12:59:41;;;;;;;;;;;;;;;15.21;44.47;99469.56;4980699;28;6995;-77
2023/03/25 13:02:54;;;;;;;;;;;;;;;14.94;45.21;99457.09;4975500;28;6820;-77
2023/03/25 13:05:29;;;;;;;;;;;;;;;14.81;45.70;99482.72;4988848;28;7083;-77
2023/03/25 13:08:36;;;;;;;;;;;;;;;14.75;46.10;99492.06;4952476;28;7007;-77
2023/03/25 13:11:26;;;;;;;;;;;;;;;14.56;46.77;99510.63;4971983;28;7434;-77
2023/03/25 13:13:59;;;;;;;;;;;;;;;14.33;47.21;99582.38;4964674;28;7330;-78
2023/03/25 13:16:30;;;;;;;;;;;;;;;13.97;47.86;99561.06;4972070;28;7489;-78
2023/03/25 13:19:09;;;;;;;;;;;;;;;13.56;48.24;99537.88;4965818;28;7003;-78
2023/03/25 13:21:42;;;;;;;;;;;;;;;13.25;49.56;99534.59;4982575;28;7275;-77
2023/03/25 13:24:42;;;;;;;;;;;;;;;13.13;51.28;99527.44;4966426;28;7120;-77
2023/03/25 13:27:12;;;;;;;;;;;;;;;13.21;51.42;99523.34;4972100;28;6812;-77
2023/03/25 13:29:47;;;;;;;;;;;;;;;13.33;52.96;99517.63;4981015;28;7277;-77
2023/03/25 13:32:53;;;;;;;;;;;;;;;13.52;53.11;99510.31;4982919;28;6800;-78
2023/03/25 13:35:34;;;;;;;;;;;;;;;13.68;52.57;99512.41;4976914;28;14308;-77
2023/03/25 13:38:11;;;;;;;;;;;;;;;13.74;53.11;99520.25;4969217;28;8731;-78